Time;durP1;ratioP1;P1;durP2;ratioP2;P2;SDS_P1;SDS_P2;PMS_P1;PMS_P2;Temp;Humidity;BMP_temperature;BMP_pressure;BME280_temperature;BME280_humidity;BME280_pressure;Samples;Min_cycle;Max_cycle;Signal;HPM_P1;HPM_P2
2021/12/17 00:04:58;;;;;;;19.00;11.00;;;4.10;99.90;;;;;;4981628;28;20019;-79
2021/12/17 00:07:26;;;;;;;16.25;11.10;;;4.20;99.90;;;;;;4980823;28;20026;-78
2021/12/17 00:09:54;;;;;;;18.60;10.40;;;4.20;99.90;;;;;;4963512;28;20533;-78
2021/12/17 00:12:21;;;;;;;16.77;10.23;;;4.30;99.90;;;;;;4980333;28;20035;-79
2021/12/17 00:14:49;;;;;;;15.15;10.20;;;4.30;99.90;;;;;;4980928;28;20130;-79
2021/12/17 00:17:21;;;;;;;18.83;11.75;;;4.30;99.90;;;;;;4981557;28;20015;-79
2021/12/17 00:20:22;;;;;;;19.83;11.90;;;4.30;99.90;;;;;;4991168;28;20029;-79
2021/12/17 00:50:03;;;;;;;13.73;8.77;;;4.60;99.90;;;;;;4986028;28;20057;-80
2021/12/17 00:52:32;;;;;;;15.48;9.68;;;4.50;99.90;;;;;;5015769;28;20092;-79
2021/12/17 00:54:58;;;;;;;19.15;10.35;;;4.50;99.90;;;;;;5017306;28;20026;-79
2021/12/17 00:57:35;;;;;;;20.15;11.68;;;4.50;99.90;;;;;;5016667;28;20014;-79
2021/12/17 01:00:05;;;;;;;16.73;10.07;;;4.40;99.90;;;;;;4987954;28;20038;-79
2021/12/17 01:02:33;;;;;;;16.17;10.02;;;4.40;99.90;;;;;;4972093;28;20033;-79
2021/12/17 01:05:04;;;;;;;13.20;8.90;;;4.40;99.90;;;;;;4981568;28;20087;-79
2021/12/17 01:07:33;;;;;;;15.00;9.52;;;4.40;99.90;;;;;;4982300;28;20022;-80
2021/12/17 01:10:00;;;;;;;14.40;9.45;;;4.50;99.90;;;;;;4980579;28;20050;-79
2021/12/17 01:12:26;;;;;;;13.35;8.75;;;4.50;99.90;;;;;;4989104;28;20026;-79
2021/12/17 01:14:54;;;;;;;15.70;9.35;;;4.60;99.90;;;;;;4997992;28;20048;-79
2021/12/17 01:17:22;;;;;;;13.13;8.40;;;4.60;99.90;;;;;;4979497;28;20050;-79
2021/12/17 01:23:58;;;;;;;13.75;8.30;;;4.70;99.90;;;;;;4993804;28;20081;-79
2021/12/17 01:36:03;;;;;;;13.18;8.77;;;4.70;99.90;;;;;;4998916;28;20394;-78
2021/12/17 01:44:02;;;;;;;10.75;7.38;;;4.70;99.90;;;;;;4998643;28;20498;-79
2021/12/17 01:46:31;;;;;;;12.75;7.70;;;4.70;99.90;;;;;;4998585;28;20651;-79
2021/12/17 02:00:34;;;;;;;12.93;7.97;;;4.60;99.90;;;;;;4981975;28;20518;-80
2021/12/17 02:03:00;;;;;;;10.23;6.75;;;4.60;99.90;;;;;;4921410;29;20020;-79
2021/12/17 02:05:26;;;;;;;10.88;6.45;;;4.60;99.90;;;;;;4970467;28;20038;-79
2021/12/17 02:07:55;;;;;;;10.38;6.90;;;4.60;99.90;;;;;;5006304;28;20081;-79
2021/12/17 02:10:56;;;;;;;9.90;6.45;;;4.70;99.90;;;;;;5005061;28;20050;-78
2021/12/17 02:32:08;;;;;;;9.50;6.25;;;4.60;99.90;;;;;;4960919;28;20033;-79
2021/12/17 02:37:12;;;;;;;8.70;5.82;;;4.60;99.90;;;;;;4984057;28;20456;-79
2021/12/17 02:47:50;;;;;;;7.40;5.07;;;4.60;99.90;;;;;;4997179;28;20042;-79
2021/12/17 02:50:16;;;;;;;7.13;5.20;;;4.70;99.90;;;;;;4972903;28;20046;-80
2021/12/17 02:52:42;;;;;;;8.70;5.80;;;4.70;99.90;;;;;;4965355;28;20078;-80
2021/12/17 02:55:08;;;;;;;9.32;6.93;;;4.60;99.90;;;;;;4982655;28;20023;-80
2021/12/17 02:57:35;;;;;;;8.27;5.32;;;4.50;99.90;;;;;;5002238;28;20019;-79
2021/12/17 03:00:05;;;;;;;7.38;5.30;;;4.50;99.90;;;;;;5002091;28;20523;-79
2021/12/17 03:02:32;;;;;;;10.88;7.78;;;4.60;99.90;;;;;;5000764;28;20066;-78
2021/12/17 03:04:59;;;;;;;9.30;6.70;;;4.60;99.90;;;;;;5000324;28;20027;-79
2021/12/17 03:07:24;;;;;;;7.68;6.00;;;4.50;99.90;;;;;;4968287;28;20034;-78
2021/12/17 03:10:04;;;;;;;8.13;5.18;;;4.50;99.90;;;;;;4964654;28;20364;-79
2021/12/17 03:12:43;;;;;;;7.72;5.22;;;4.60;99.90;;;;;;4981728;28;20038;-79
2021/12/17 03:15:23;;;;;;;8.77;6.43;;;4.60;99.90;;;;;;4981900;28;20022;-79
2021/12/17 03:25:45;;;;;;;7.93;5.85;;;4.60;99.90;;;;;;5001843;28;20032;-79
2021/12/17 03:28:11;;;;;;;8.02;6.20;;;4.60;99.90;;;;;;4982658;28;20573;-79
2021/12/17 03:30:36;;;;;;;8.70;6.47;;;4.50;99.90;;;;;;4986103;28;20057;-79
2021/12/17 03:33:02;;;;;;;10.88;7.57;;;4.50;99.90;;;;;;4982031;28;20023;-77
2021/12/17 03:35:28;;;;;;;12.35;7.60;;;4.50;99.90;;;;;;4979698;28;20031;-79
2021/12/17 03:37:54;;;;;;;13.02;7.97;;;4.50;99.90;;;;;;4981172;28;20022;-79
2021/12/17 03:40:20;;;;;;;10.60;7.22;;;4.50;99.90;;;;;;4966642;28;20027;-79
2021/12/17 03:42:49;;;;;;;10.18;7.32;;;4.50;99.90;;;;;;4981145;28;20030;-79
2021/12/17 03:45:16;;;;;;;11.10;8.57;;;4.50;99.90;;;;;;4964049;28;20487;-78
2021/12/17 03:47:43;;;;;;;14.30;8.32;;;4.50;99.90;;;;;;4984319;28;20026;-79
2021/12/17 03:50:10;;;;;;;11.60;7.70;;;4.50;99.90;;;;;;4989804;28;20098;-80
2021/12/17 03:52:36;;;;;;;11.18;7.55;;;4.50;99.90;;;;;;4962048;28;20484;-79
2021/12/17 03:55:03;;;;;;;13.38;8.82;;;4.50;99.90;;;;;;4962445;29;20496;-79
2021/12/17 03:57:29;;;;;;;12.23;8.10;;;4.40;99.90;;;;;;4965609;28;20031;-79
2021/12/17 03:59:55;;;;;;;12.55;9.05;;;4.40;99.90;;;;;;4983433;28;20423;-78
2021/12/17 04:02:21;;;;;;;12.38;8.27;;;4.40;99.90;;;;;;4981454;28;20035;-79
2021/12/17 04:04:47;;;;;;;13.55;8.45;;;4.30;99.90;;;;;;4981416;28;20536;-78
2021/12/17 04:07:12;;;;;;;11.63;7.97;;;4.40;99.90;;;;;;4982913;28;20400;-78
2021/12/17 04:09:38;;;;;;;12.98;8.05;;;4.30;99.90;;;;;;4963290;28;20027;-78
2021/12/17 04:12:09;;;;;;;14.40;8.15;;;4.40;99.90;;;;;;4963132;28;20035;-80
2021/12/17 04:14:43;;;;;;;13.30;8.60;;;4.40;99.90;;;;;;4983203;28;20584;-80
2021/12/17 04:17:10;;;;;;;11.20;7.55;;;4.30;99.90;;;;;;4964086;28;20215;-80
2021/12/17 04:19:36;;;;;;;13.75;8.27;;;4.30;99.90;;;;;;4990392;28;20043;-82
2021/12/17 04:22:03;;;;;;;13.32;8.20;;;4.30;99.90;;;;;;4966459;28;20027;-80
2021/12/17 04:24:29;;;;;;;9.35;6.72;;;4.30;99.90;;;;;;4995716;28;20022;-80
2021/12/17 04:26:55;;;;;;;8.38;6.35;;;4.30;99.90;;;;;;5005311;28;20050;-80
2021/12/17 04:29:23;;;;;;;10.38;7.10;;;4.40;99.90;;;;;;4994216;28;20034;-79
2021/12/17 04:31:54;;;;;;;9.13;5.85;;;4.50;99.90;;;;;;4968925;28;20026;-79
2021/12/17 04:34:21;;;;;;;7.68;5.60;;;4.60;99.90;;;;;;4966180;28;20035;-80
2021/12/17 04:36:50;;;;;;;10.35;6.78;;;4.70;99.90;;;;;;4983535;28;20101;-79
2021/12/17 04:39:20;;;;;;;9.13;6.20;;;4.70;99.90;;;;;;4984018;28;20019;-79
2021/12/17 04:41:53;;;;;;;9.50;6.95;;;4.80;99.90;;;;;;4983885;28;20031;-80
2021/12/17 04:44:26;;;;;;;;;;;4.80;99.90;;;;;;4966184;28;20030;-81
2021/12/17 04:57:36;;;;;;;9.88;6.68;;;4.90;99.90;;;;;;4982185;28;20054;-80
2021/12/17 05:00:19;;;;;;;9.98;6.10;;;5.00;99.90;;;;;;4964187;28;20038;-81
2021/12/17 05:02:48;;;;;;;7.63;5.70;;;5.00;99.90;;;;;;4981313;28;20007;-77
2021/12/17 05:05:16;;;;;;;7.93;5.38;;;5.00;99.90;;;;;;4981180;28;20380;-80
2021/12/17 05:07:49;;;;;;;10.05;6.38;;;5.00;99.90;;;;;;4981478;28;20399;-80
2021/12/17 05:18:22;;;;;;;8.75;5.90;;;5.00;99.90;;;;;;4983086;28;20046;-79
2021/12/17 05:20:52;;;;;;;7.93;5.65;;;5.00;99.90;;;;;;4983836;28;20026;-79
2021/12/17 05:23:24;;;;;;;8.52;6.00;;;5.00;99.90;;;;;;4984464;28;20026;-82
2021/12/17 05:25:51;;;;;;;8.63;5.93;;;4.90;99.90;;;;;;4982074;28;20026;-82
2021/12/17 05:28:17;;;;;;;6.57;4.60;;;4.90;99.90;;;;;;4982923;28;20460;-82
2021/12/17 05:30:47;;;;;;;8.73;5.22;;;4.90;99.90;;;;;;4988312;28;20081;-83
2021/12/17 05:33:19;;;;;;;6.15;4.53;;;5.00;99.90;;;;;;4986217;28;20027;-84
2021/12/17 05:35:46;;;;;;;6.53;4.25;;;5.00;99.90;;;;;;5002878;28;20018;-83
2021/12/17 05:38:13;;;;;;;6.38;4.35;;;5.00;99.90;;;;;;5003588;28;20026;-84
2021/12/17 05:40:40;;;;;;;5.80;4.13;;;5.00;99.90;;;;;;4983870;28;20106;-81
2021/12/17 05:43:06;;;;;;;5.53;4.07;;;5.00;99.90;;;;;;5001290;28;20022;-81
2021/12/17 05:45:48;;;;;;;5.88;3.97;;;5.00;99.90;;;;;;5001182;28;20026;-82
2021/12/17 05:48:17;;;;;;;6.38;4.43;;;5.00;99.90;;;;;;4993206;28;20023;-81
2021/12/17 05:50:45;;;;;;;6.70;4.18;;;4.90;99.90;;;;;;4995878;28;20050;-83
2021/12/17 05:53:11;;;;;;;6.13;4.15;;;4.80;99.90;;;;;;5003390;28;20109;-82
2021/12/17 05:55:38;;;;;;;3.42;2.72;;;4.80;99.90;;;;;;5003775;28;20026;-82
2021/12/17 05:58:05;;;;;;;3.97;3.10;;;4.80;99.90;;;;;;5006625;28;20042;-82
2021/12/17 06:00:32;;;;;;;4.97;3.53;;;4.80;99.90;;;;;;5008649;28;20027;-81
2021/12/17 06:02:59;;;;;;;4.65;3.55;;;4.80;99.90;;;;;;4992227;28;20118;-83
2021/12/17 06:05:26;;;;;;;4.25;3.15;;;4.70;99.90;;;;;;4969883;28;20446;-83
2021/12/17 06:07:52;;;;;;;3.20;2.90;;;4.70;99.90;;;;;;4969211;28;20049;-82
2021/12/17 06:10:18;;;;;;;5.60;2.65;;;4.70;99.90;;;;;;4988632;28;20023;-81
2021/12/17 06:12:44;;;;;;;4.45;3.63;;;4.70;99.90;;;;;;4975662;28;20057;-83
2021/12/17 06:15:13;;;;;;;7.90;3.90;;;4.80;99.90;;;;;;4997709;28;20046;-84
2021/12/17 06:17:39;;;;;;;4.07;3.45;;;4.80;99.90;;;;;;4997359;28;20034;-85
2021/12/17 06:20:07;;;;;;;5.47;3.90;;;4.70;99.90;;;;;;5012356;28;20186;-87
2021/12/17 06:22:33;;;;;;;5.97;4.00;;;4.70;99.90;;;;;;4995384;28;20022;-83
2021/12/17 06:24:59;;;;;;;4.63;3.58;;;4.80;99.90;;;;;;4996868;28;20042;-82
2021/12/17 06:27:25;;;;;;;6.45;3.67;;;4.70;99.90;;;;;;4979325;28;20038;-83
2021/12/17 06:29:52;;;;;;;4.35;3.55;;;4.70;99.90;;;;;;4985779;28;20022;-84
2021/12/17 06:32:19;;;;;;;4.70;3.55;;;4.70;99.90;;;;;;4996578;28;20098;-83
2021/12/17 06:34:45;;;;;;;5.43;3.88;;;4.70;99.90;;;;;;4988372;28;20046;-83
2021/12/17 06:37:11;;;;;;;5.47;3.78;;;4.70;99.90;;;;;;4986023;28;20027;-82
2021/12/17 06:39:37;;;;;;;5.15;3.88;;;4.60;99.90;;;;;;4987482;28;20095;-82
2021/12/17 06:42:03;;;;;;;4.68;3.97;;;4.60;99.90;;;;;;4984960;28;20420;-84
2021/12/17 06:44:30;;;;;;;5.53;4.60;;;4.50;99.90;;;;;;4985596;28;20023;-84
2021/12/17 06:47:52;;;;;;;6.50;4.45;;;4.40;99.90;;;;;;4986336;28;20433;-83
2021/12/17 06:49:53;;;;;;;5.50;4.10;;;4.40;99.90;;;;;;4983942;28;20129;-84
2021/12/17 06:55:25;;;;;;;4.45;3.70;;;4.30;99.90;;;;;;5003537;28;20088;-83
2021/12/17 07:01:12;;;;;;;5.43;4.20;;;4.30;99.90;;;;;;5004057;28;20041;-83
2021/12/17 07:06:31;;;;;;;5.95;4.50;;;4.20;99.90;;;;;;5002953;28;20088;-83
2021/12/17 07:09:31;;;;;;;7.57;4.82;;;4.10;99.90;;;;;;4988122;28;20037;-82
2021/12/17 07:17:21;;;;;;;8.07;5.18;;;3.80;99.90;;;;;;4983981;28;20038;-81
2021/12/17 07:35:48;;;;;;;9.68;6.47;;;3.30;99.90;;;;;;4990452;28;20102;-83
2021/12/17 07:41:00;;;;;;;10.48;6.15;;;3.30;99.90;;;;;;4990802;28;20034;-84
2021/12/17 07:43:40;;;;;;;9.75;5.88;;;3.30;99.90;;;;;;4990176;28;20019;-84
2021/12/17 07:46:09;;;;;;;8.25;5.57;;;3.40;99.90;;;;;;4979442;28;20022;-82
2021/12/17 07:48:37;;;;;;;7.35;5.72;;;3.60;99.90;;;;;;4981082;28;20018;-86
2021/12/17 07:51:05;;;;;;;5.97;4.53;;;3.70;99.90;;;;;;4995123;28;20099;-84
2021/12/17 07:53:32;;;;;;;7.97;6.00;;;3.90;99.90;;;;;;4985525;28;20049;-80
2021/12/17 07:56:00;;;;;;;8.90;5.80;;;4.00;99.90;;;;;;4987910;28;20041;-81
2021/12/17 07:58:27;;;;;;;8.00;5.10;;;4.10;99.90;;;;;;5008831;28;20022;-82
2021/12/17 08:00:53;;;;;;;7.57;5.30;;;4.20;99.90;;;;;;5008457;28;20037;-83
2021/12/17 08:03:19;;;;;;;9.70;5.78;;;4.30;99.90;;;;;;5006722;28;20046;-82
2021/12/17 08:05:44;;;;;;;7.75;5.32;;;4.40;99.90;;;;;;5007021;28;20120;-82
2021/12/17 08:08:12;;;;;;;6.55;4.88;;;4.50;99.90;;;;;;5005430;28;20053;-81
2021/12/17 08:10:37;;;;;;;7.25;5.13;;;4.50;99.90;;;;;;4986253;28;20472;-84
2021/12/17 08:13:06;;;;;;;7.55;5.70;;;4.50;99.90;;;;;;4986830;28;20046;-82
2021/12/17 08:15:38;;;;;;;8.95;5.70;;;4.40;99.90;;;;;;4986440;28;20369;-81
2021/12/17 08:18:25;;;;;;;7.95;5.85;;;4.30;99.90;;;;;;4988883;28;20030;-84
2021/12/17 08:34:06;;;;;;;8.15;4.88;;;4.40;99.90;;;;;;4992411;28;20054;-85
2021/12/17 08:37:32;;;;;;;7.40;5.05;;;4.50;99.90;;;;;;4922039;29;20043;-84
2021/12/17 08:40:10;;;;;;;7.70;4.90;;;4.50;99.90;;;;;;4919004;29;20036;-82
2021/12/17 08:42:40;;;;;;;8.55;5.18;;;4.60;99.90;;;;;;4956299;28;20558;-86
2021/12/17 08:45:08;;;;;;;7.22;4.60;;;4.60;99.90;;;;;;4985545;28;20031;-82
2021/12/17 08:47:36;;;;;;;6.75;4.85;;;4.70;99.90;;;;;;4985514;28;20027;-84
2021/12/17 08:50:06;;;;;;;6.35;4.55;;;4.70;99.90;;;;;;4965958;28;20043;-82
2021/12/17 08:52:32;;;;;;;6.68;4.57;;;4.80;99.90;;;;;;4988680;28;20045;-82
2021/12/17 08:54:58;;;;;;;5.80;4.03;;;4.80;99.90;;;;;;4991499;28;20022;-79
2021/12/17 08:57:23;;;;;;;5.25;4.22;;;4.90;99.90;;;;;;4990726;28;20450;-81
2021/12/17 08:59:49;;;;;;;5.18;3.53;;;4.90;99.90;;;;;;4987252;28;20022;-81
2021/12/17 09:02:15;;;;;;;5.78;3.90;;;5.10;99.90;;;;;;5006999;28;20022;-82
2021/12/17 09:04:41;;;;;;;5.80;4.10;;;5.20;99.90;;;;;;5006632;28;20023;-84
2021/12/17 09:07:07;;;;;;;7.55;5.13;;;5.30;99.90;;;;;;5005710;28;20476;-81
2021/12/17 09:09:32;;;;;;;7.88;3.90;;;5.30;99.90;;;;;;4987804;28;20022;-84
2021/12/17 09:11:59;;;;;;;5.13;4.05;;;5.30;99.90;;;;;;5007028;28;20034;-80
2021/12/17 09:14:25;;;;;;;6.30;4.70;;;5.50;99.90;;;;;;5009696;28;20077;-81
2021/12/17 09:16:51;;;;;;;7.22;4.55;;;5.60;99.90;;;;;;4987639;28;20058;-85
2021/12/17 09:19:17;;;;;;;10.23;4.75;;;5.60;99.90;;;;;;4986145;28;20049;-81
2021/12/17 09:21:43;;;;;;;6.80;5.07;;;5.70;99.90;;;;;;4987349;28;20026;-84
2021/12/17 09:24:11;;;;;;;9.88;5.68;;;5.70;99.90;;;;;;4983778;28;20022;-82
2021/12/17 09:26:37;;;;;;;8.60;5.63;;;5.80;99.40;;;;;;4971672;28;20054;-82
2021/12/17 09:29:03;;;;;;;9.32;5.30;;;5.90;98.70;;;;;;4989324;28;20034;-80
2021/12/17 09:31:29;;;;;;;8.93;5.60;;;5.80;98.30;;;;;;4985650;28;20019;-80
2021/12/17 09:33:55;;;;;;;8.95;5.80;;;5.80;98.40;;;;;;4984002;28;20639;-81
2021/12/17 09:36:21;;;;;;;11.73;6.38;;;5.90;97.90;;;;;;4985521;28;20472;-83
2021/12/17 09:38:52;;;;;;;7.20;5.10;;;6.00;98.00;;;;;;4986903;28;20539;-82
2021/12/17 09:41:23;;;;;;;10.27;5.13;;;6.00;98.00;;;;;;4952666;28;20037;-79
2021/12/17 09:43:49;;;;;;;9.32;5.68;;;6.20;97.90;;;;;;4986274;28;20027;-82
2021/12/17 09:46:16;;;;;;;9.70;4.95;;;6.20;97.10;;;;;;4985060;28;20023;-83
2021/12/17 09:48:46;;;;;;;9.23;5.47;;;6.20;97.00;;;;;;4982725;28;20046;-84
2021/12/17 09:51:18;;;;;;;7.05;5.82;;;6.40;96.60;;;;;;4965012;28;20043;-83
2021/12/17 09:53:45;;;;;;;8.38;5.40;;;6.40;96.00;;;;;;4968138;28;20027;-84
2021/12/17 09:56:11;;;;;;;6.53;5.32;;;6.30;95.40;;;;;;4967243;28;20023;-82
2021/12/17 09:58:37;;;;;;;7.90;5.35;;;6.30;95.50;;;;;;4964888;28;20027;-81
2021/12/17 10:01:11;;;;;;;6.68;4.85;;;6.40;95.60;;;;;;4981944;28;20499;-82
2021/12/17 10:03:37;;;;;;;6.35;4.80;;;6.50;95.40;;;;;;4968224;28;20027;-83
2021/12/17 10:06:22;;;;;;;5.47;4.05;;;6.80;95.10;;;;;;4969139;28;20119;-82
2021/12/17 10:08:49;;;;;;;5.95;4.20;;;7.00;94.60;;;;;;4969818;28;20506;-85
2021/12/17 10:11:16;;;;;;;4.75;4.15;;;7.10;94.00;;;;;;4985283;28;20030;-84
2021/12/17 10:13:42;;;;;;;5.45;3.78;;;7.20;93.50;;;;;;4985095;28;20031;-85
2021/12/17 10:16:19;;;;;;;4.38;3.78;;;7.20;93.30;;;;;;4985219;28;20082;-83
2021/12/17 10:18:48;;;;;;;6.47;4.57;;;7.20;93.30;;;;;;4971474;28;20026;-82
2021/12/17 10:21:22;;;;;;;7.82;4.28;;;7.30;92.90;;;;;;4987617;28;20138;-82
2021/12/17 10:23:50;;;;;;;6.78;4.85;;;7.30;92.70;;;;;;4988204;28;20068;-83
2021/12/17 10:26:19;;;;;;;5.40;4.13;;;7.30;92.60;;;;;;4995076;28;20030;-83
2021/12/17 10:29:04;;;;;;;5.28;3.83;;;7.40;92.60;;;;;;4967139;28;20054;-82
2021/12/17 10:31:37;;;;;;;7.20;4.35;;;7.40;92.50;;;;;;4967306;28;20085;-83
2021/12/17 10:34:18;;;;;;;5.25;4.07;;;7.40;92.20;;;;;;4967670;28;20019;-85
2021/12/17 10:36:45;;;;;;;7.82;5.35;;;7.50;92.20;;;;;;4985007;28;20038;-84
2021/12/17 10:39:26;;;;;;;8.27;5.50;;;7.30;91.90;;;;;;4987696;28;20415;-84
2021/12/17 10:41:55;;;;;;;6.95;5.32;;;7.10;92.30;;;;;;4967871;28;20031;-84
2021/12/17 10:44:22;;;;;;;8.05;5.40;;;7.00;92.70;;;;;;4967924;28;20049;-84
2021/12/17 10:47:14;;;;;;;8.52;5.68;;;7.00;93.10;;;;;;4987174;28;20153;-85
2021/12/17 10:49:55;;;;;;;6.15;5.00;;;7.00;93.10;;;;;;4976226;28;20053;-84
2021/12/17 10:52:29;;;;;;;5.80;4.75;;;7.10;93.10;;;;;;5008125;28;20022;-84
2021/12/17 10:55:14;;;;;;;9.68;5.95;;;7.20;93.00;;;;;;5010857;28;20019;-81
2021/12/17 10:57:40;;;;;;;8.32;6.13;;;7.10;92.60;;;;;;4987170;28;20037;-80
2021/12/17 11:00:08;;;;;;;8.02;5.88;;;7.10;92.80;;;;;;4987749;28;20026;-80
2021/12/17 11:02:33;;;;;;;7.80;4.63;;;7.00;93.00;;;;;;5006446;28;20037;-84
2021/12/17 11:05:11;;;;;;;8.38;5.57;;;7.00;93.20;;;;;;4992703;28;20097;-81
2021/12/17 11:07:40;;;;;;;7.90;5.20;;;7.00;93.10;;;;;;4992803;28;20045;-82
2021/12/17 11:10:10;;;;;;;7.22;5.57;;;7.10;93.10;;;;;;4993232;28;20027;-81
2021/12/17 12:33:43;;;;;;;6.72;5.50;;;7.30;94.90;;;;;;4948266;29;20102;-84
2021/12/17 13:00:54;;;;;;;8.32;6.38;;;6.20;98.00;;;;;;4927764;29;20051;-83
2021/12/17 13:03:38;;;;;;;7.07;5.55;;;6.30;97.60;;;;;;4929526;29;20086;-83
2021/12/17 13:06:05;;;;;;;8.15;5.60;;;6.30;97.80;;;;;;4946758;28;20044;-83
2021/12/17 13:08:31;;;;;;;11.05;6.03;;;6.20;97.90;;;;;;4935569;29;20020;-82
2021/12/17 13:11:02;;;;;;;7.80;5.53;;;6.10;97.90;;;;;;4930470;29;20055;-83
2021/12/17 13:13:40;;;;;;;8.63;7.28;;;6.10;98.20;;;;;;4950770;29;20012;-83
2021/12/17 13:16:19;;;;;;;8.77;5.45;;;6.20;97.90;;;;;;4953785;28;20052;-83
2021/12/17 13:24:21;;;;;;;7.93;6.78;;;6.20;98.10;;;;;;4950056;29;20050;-84
2021/12/17 13:27:11;;;;;;;8.02;6.68;;;6.20;98.50;;;;;;4949284;29;20090;-84
2021/12/17 13:29:43;;;;;;;8.20;6.13;;;6.20;98.70;;;;;;4949587;29;20026;-84
2021/12/17 13:32:11;;;;;;;8.05;6.13;;;6.20;98.80;;;;;;4946381;29;20365;-84
2021/12/17 13:34:43;;;;;;;8.95;6.88;;;6.30;98.70;;;;;;4948099;29;20051;-84
2021/12/17 13:37:12;;;;;;;7.68;6.03;;;6.20;98.00;;;;;;4947215;29;20032;-84
2021/12/17 13:39:50;;;;;;;8.30;6.25;;;6.20;98.20;;;;;;4947722;29;20023;-84
2021/12/17 13:42:17;;;;;;;9.75;7.15;;;6.10;98.70;;;;;;4947876;29;20026;-84
2021/12/17 13:44:49;;;;;;;13.32;7.97;;;6.00;99.00;;;;;;4947932;29;20034;-84
2021/12/17 13:47:19;;;;;;;7.65;6.32;;;5.90;99.20;;;;;;4947617;29;20030;-84
2021/12/17 13:50:04;;;;;;;8.70;6.70;;;5.90;99.10;;;;;;4947696;29;20043;-84
2021/12/17 13:52:32;;;;;;;7.30;5.70;;;5.90;99.40;;;;;;4977258;28;20028;-84
2021/12/17 13:54:59;;;;;;;6.90;5.82;;;6.00;99.60;;;;;;4946356;29;20091;-84
2021/12/17 13:57:31;;;;;;;7.32;5.15;;;6.00;99.70;;;;;;4948071;29;20019;-84
2021/12/17 14:00:27;;;;;;;7.80;6.15;;;6.10;99.70;;;;;;4955182;29;20067;-84
2021/12/17 14:02:55;;;;;;;8.93;6.38;;;6.20;98.60;;;;;;4965521;28;20046;-84
2021/12/17 14:05:57;;;;;;;6.90;5.50;;;6.10;98.80;;;;;;4979379;28;20039;-84
2021/12/17 14:08:23;;;;;;;6.85;5.78;;;6.00;99.30;;;;;;4947759;29;20039;-84
2021/12/17 14:10:53;;;;;;;10.55;6.95;;;5.90;99.80;;;;;;4945778;29;20481;-84
2021/12/17 14:13:26;;;;;;;11.98;7.00;;;5.90;99.90;;;;;;4958540;28;20498;-84
2021/12/17 14:15:54;;;;;;;9.02;6.53;;;5.90;99.90;;;;;;4945020;29;20027;-85
2021/12/17 14:18:22;;;;;;;9.55;6.78;;;5.90;99.90;;;;;;4947190;29;20399;-84
2021/12/17 14:20:54;;;;;;;10.70;6.85;;;5.90;99.80;;;;;;4962666;28;20027;-84
2021/12/17 14:23:24;;;;;;;;;;;5.80;99.90;;;;;;4948945;29;20020;-84
2021/12/17 14:25:52;;;;;;;9.98;7.10;;;5.80;99.90;;;;;;4948380;29;20356;-84
2021/12/17 14:28:21;;;;;;;10.77;6.97;;;5.80;99.90;;;;;;4947640;29;20024;-83
2021/12/17 14:31:16;;;;;;;8.82;6.70;;;5.80;99.90;;;;;;4953708;29;20016;-83
2021/12/17 14:34:01;;;;;;;8.32;6.53;;;5.80;99.90;;;;;;4951969;29;20552;-83
2021/12/17 14:36:30;;;;;;;9.77;7.43;;;5.80;99.90;;;;;;4951725;29;20079;-81
2021/12/17 14:39:05;;;;;;;9.77;7.95;;;5.80;99.90;;;;;;4970537;29;20063;-83
2021/12/17 14:41:50;;;;;;;9.80;7.00;;;5.70;99.90;;;;;;4956336;29;20023;-82
2021/12/17 14:44:35;;;;;;;9.57;7.90;;;5.70;99.90;;;;;;4970154;28;20091;-83
2021/12/17 15:02:02;;;;;;;8.75;7.10;;;5.60;99.90;;;;;;4953721;29;20050;-83
2021/12/17 15:04:27;;;;;;;9.65;7.45;;;5.40;99.90;;;;;;4958926;29;20036;-83
2021/12/17 15:06:54;;;;;;;10.57;7.60;;;5.40;99.90;;;;;;4949398;29;20031;-83
2021/12/17 15:09:20;;;;;;;9.40;7.93;;;5.30;99.90;;;;;;4963391;29;20028;-83
2021/12/17 15:11:45;;;;;;;11.93;8.57;;;5.30;99.90;;;;;;4949932;29;20050;-83
2021/12/17 15:14:11;;;;;;;9.95;7.30;;;5.30;99.90;;;;;;4949889;29;20689;-83
2021/12/17 15:16:37;;;;;;;10.27;7.57;;;5.30;99.90;;;;;;4950496;29;20084;-83
2021/12/17 15:19:02;;;;;;;12.57;9.25;;;5.30;99.90;;;;;;4949218;29;20114;-84
2021/12/17 15:21:28;;;;;;;13.80;10.50;;;5.20;99.90;;;;;;4948277;29;20032;-84
2021/12/17 15:23:54;;;;;;;10.98;8.52;;;5.20;99.90;;;;;;4949569;29;20528;-82
2021/12/17 15:26:20;;;;;;;10.38;7.93;;;5.20;99.90;;;;;;4948717;29;20023;-83
2021/12/17 15:28:45;;;;;;;12.50;9.82;;;5.20;99.90;;;;;;4950529;29;20392;-84
2021/12/17 15:31:11;;;;;;;15.27;10.43;;;5.20;99.90;;;;;;4950717;29;20063;-84
2021/12/17 15:33:37;;;;;;;14.13;10.25;;;5.20;99.90;;;;;;4951343;29;20055;-82
2021/12/17 15:36:03;;;;;;;13.65;9.85;;;5.10;99.90;;;;;;4950853;29;20028;-83
2021/12/17 15:38:29;;;;;;;12.73;9.73;;;5.10;99.90;;;;;;4947618;29;20075;-83
2021/12/17 15:40:55;;;;;;;11.15;8.98;;;5.10;99.90;;;;;;4945917;29;20059;-83
2021/12/17 15:43:22;;;;;;;10.00;8.93;;;5.10;99.90;;;;;;4947556;29;20027;-83
2021/12/17 15:45:50;;;;;;;12.82;10.23;;;5.10;99.90;;;;;;4945391;29;20119;-83
2021/12/17 15:48:27;;;;;;;16.73;11.32;;;5.00;99.90;;;;;;4943695;29;20058;-82
2021/12/17 15:50:54;;;;;;;12.57;10.18;;;5.00;99.90;;;;;;4946037;29;20027;-81
2021/12/17 15:53:19;;;;;;;12.75;10.05;;;5.00;99.90;;;;;;4945400;29;20175;-82
2021/12/17 15:55:45;;;;;;;13.93;9.90;;;4.90;99.90;;;;;;4953438;29;20019;-84
2021/12/17 15:58:11;;;;;;;12.13;9.38;;;4.90;99.90;;;;;;4959937;28;20031;-83
2021/12/17 16:00:38;;;;;;;12.38;9.23;;;4.80;99.90;;;;;;4959352;29;20034;-82
2021/12/17 16:03:06;;;;;;;12.77;9.82;;;4.70;99.90;;;;;;4948284;29;20031;-83
2021/12/17 16:05:39;;;;;;;14.23;10.55;;;4.60;99.90;;;;;;4964465;29;20024;-83
2021/12/17 16:08:05;;;;;;;;;;;4.70;99.90;;;;;;4948281;29;20019;-82
2021/12/17 16:21:12;;;;;;;11.50;9.02;;;4.80;99.90;;;;;;4945075;29;20036;-83
2021/12/17 16:23:44;;;;;;;12.63;9.75;;;4.80;99.90;;;;;;4943042;29;20032;-82
2021/12/17 16:26:11;;;;;;;15.45;11.63;;;4.80;99.90;;;;;;4942851;29;20031;-83
2021/12/17 16:28:38;;;;;;;21.52;15.27;;;4.90;99.90;;;;;;4942726;29;20055;-83
2021/12/17 16:31:09;;;;;;;21.20;13.52;;;4.90;99.90;;;;;;4942478;29;20058;-83
2021/12/17 16:33:37;;;;;;;19.98;13.88;;;4.90;99.90;;;;;;4969522;28;20139;-84
2021/12/17 16:36:04;;;;;;;15.90;11.93;;;4.90;99.90;;;;;;4957391;29;20020;-83
2021/12/17 16:38:30;;;;;;;15.50;11.95;;;4.90;99.90;;;;;;4949391;28;20035;-83
2021/12/17 16:40:57;;;;;;;16.58;12.43;;;4.90;99.90;;;;;;4953866;29;20032;-83
2021/12/17 16:43:24;;;;;;;18.13;13.05;;;4.90;99.90;;;;;;4958020;28;20027;-83
2021/12/17 16:47:01;;;;;;;19.60;13.80;;;4.90;99.90;;;;;;4959176;28;20087;-84
2021/12/17 16:48:46;;;;;;;15.50;12.63;;;4.90;99.90;;;;;;4953633;28;20083;-84
2021/12/17 16:51:14;;;;;;;17.45;13.02;;;4.80;99.90;;;;;;4952222;29;20089;-82
2021/12/17 16:53:40;;;;;;;14.95;11.75;;;4.80;99.90;;;;;;4948828;29;20027;-81
2021/12/17 16:56:07;;;;;;;16.60;12.77;;;4.80;99.90;;;;;;4965308;29;20027;-82
2021/12/17 16:58:33;;;;;;;18.48;14.20;;;4.80;99.90;;;;;;4973819;28;20095;-84
2021/12/17 17:00:59;;;;;;;17.55;12.95;;;4.80;99.90;;;;;;4967758;28;20043;-83
2021/12/17 17:03:25;;;;;;;21.10;14.85;;;4.80;99.90;;;;;;4943451;29;20067;-82
2021/12/17 17:05:52;;;;;;;19.02;13.50;;;4.80;99.90;;;;;;4951247;29;20055;-83
2021/12/17 17:08:18;;;;;;;16.13;12.20;;;4.80;99.90;;;;;;4951744;29;20030;-83
2021/12/17 17:10:51;;;;;;;19.65;12.90;;;4.80;99.90;;;;;;4952781;29;20032;-83
2021/12/17 17:13:17;;;;;;;18.67;13.77;;;4.80;99.90;;;;;;4978058;23;20042;-83
2021/12/17 17:15:43;;;;;;;17.23;12.18;;;4.80;99.90;;;;;;5005062;28;20025;-83
2021/12/17 17:18:15;;;;;;;15.13;11.73;;;4.80;99.90;;;;;;5003752;28;20058;-84
2021/12/17 17:20:44;;;;;;;14.98;10.60;;;4.70;99.90;;;;;;4988322;28;20039;-83
2021/12/17 17:23:12;;;;;;;19.13;12.55;;;4.70;99.90;;;;;;5002928;28;20057;-84
2021/12/17 17:25:39;;;;;;;22.10;13.95;;;4.70;99.90;;;;;;5001375;28;20084;-85
2021/12/17 17:28:07;;;;;;;22.23;15.15;;;4.70;99.90;;;;;;4993925;28;20030;-83
2021/12/17 17:30:38;;;;;;;23.10;13.95;;;4.60;99.90;;;;;;4985755;28;20042;-82
2021/12/17 17:33:07;;;;;;;19.95;14.25;;;4.50;99.90;;;;;;4984635;28;20034;-83
2021/12/17 17:35:33;;;;;;;16.77;12.88;;;4.40;99.90;;;;;;4982407;28;20019;-84
2021/12/17 17:37:59;;;;;;;23.25;15.93;;;4.30;99.90;;;;;;4984357;28;20015;-83
2021/12/17 17:40:25;;;;;;;22.42;15.10;;;4.30;99.90;;;;;;4983463;28;20023;-82
2021/12/17 17:42:51;;;;;;;20.90;14.25;;;4.30;99.90;;;;;;4983545;28;20111;-83
2021/12/17 17:45:18;;;;;;;17.45;13.52;;;4.20;99.90;;;;;;4992506;28;20091;-83
2021/12/17 17:47:48;;;;;;;19.13;14.27;;;4.20;99.90;;;;;;4997056;28;20083;-80
2021/12/17 17:50:15;;;;;;;18.48;13.32;;;4.10;99.90;;;;;;4991710;28;20030;-81
2021/12/17 17:52:41;;;;;;;16.05;11.80;;;4.10;99.90;;;;;;4992384;28;20027;-82
2021/12/17 17:55:07;;;;;;;20.42;13.77;;;4.00;99.90;;;;;;4991152;28;20054;-83
2021/12/17 17:57:32;;;;;;;25.90;16.20;;;4.00;99.90;;;;;;4987821;28;20065;-84
2021/12/17 17:59:58;;;;;;;24.05;15.75;;;4.00;99.90;;;;;;4983201;28;20030;-85
2021/12/17 18:02:24;;;;;;;22.85;15.90;;;4.00;99.90;;;;;;4983191;28;20436;-83
2021/12/17 18:04:50;;;;;;;25.60;16.50;;;4.10;99.90;;;;;;4983745;28;20049;-83